Sheridan, WY

5:43 AM MDT on May 30, 2015 (GMT -0600)
North Airport Area | | Change Station
CLOSE
Current Station
Personal Weather Station
Location: Sheridan, WY
Elevation: 3917 ft
Nearby Weather Stations
Active Advisory: Areal Flood Advisory

Elev 3917 ft 44.78 °N, 106.97 °W | Updated 12 minutes ago

Clear
Clear
37.4 °F
Feels Like 37 °F
N
0.0
Wind Variable Wind from WNW

Today
High -- | Low -- °F
--% Chance of Precip.
Yesterday
High -- | Low -- °F
Precip. -- in
5:26 AM 8:44 PM
Waxing Gibbous, 90% visible
Pressure 30.13 in
Visibility 2.5 miles
Clouds Clear
Windchill 37 °F
Dew Point 37 °F
Humidity 97%
Rainfall 0.00 in
Snow Depth Not available.
UV 0 out of 12
Pollen 7.40 out of 12
Air Quality Not available.
Flu Activity Sporadic
SPECI KSHR 301139Z AUTO 33004KT 2 1/2SM BR CLR 03/02 A3013 RMK AO2 T00330022

More Conditions Fewer Conditions

Pressure 30.13 in
Visibility 2.5 miles
Clouds Clear
Windchill 37 °F
Dew Point 37 °F
Humidity 97%
Rainfall 0.00 in
Snow Depth Not available.
UV 0 out of 12
Pollen 7.40 out of 12
Air Quality Not available.
Flu Activity Sporadic
SPECI KSHR 301139Z AUTO 33004KT 2 1/2SM BR CLR 03/02 A3013 RMK AO2 T00330022

More Conditions Fewer Conditions

10-Day Weather Forecast

Almanac

Astronomy

May. 30, 2015 Rise Set
Actual Time
Civil Twilight
Nautical Twilight
Astronomical Twilight
Moon
Length of Visible Light
Length of Day
Tomorrow will be .
, % of the Moon is Illuminated

Today's Extremes

State Highs State Lows

Community

WunderPhotos

Upload Photos

1,825,484 photos uploaded!

WunderBlogs® & News

Nearby

Air Quality

  Air Quality AQ Index Pollutant
Not available.

Snow Depth

Station Depth Elevation

Earthquake Activity

City Distance Mag. Time & Date
Minimum magnitude displayed is 2.5.

Coastal Water Temperatures

Place Temperature

Stations

Nearby Weather Stations

Station Location Temp. Windchill Dew Point Humidity Wind Precip. Elev Updated Type
                   
Areal Flood Advisory
Statement as of 3:48 PM MDT on May 29, 2015

The National Weather Service in Billings has extended the

* Flood Advisory for minor flooding in poor drainage areas for...
south central Big Horn County in south central Montana...
western Sheridan County in north central Wyoming...

* until 500 PM MDT Saturday

* at 334 PM MDT... creeks and streams around the Bighorn Mountains
and nearby foothills continued to run high due to rainfall from
last evening. This includes little Goose Creek at Big
Horn... which is at minor flood stage this afternoon. Water levels
are expected to slowly fall tonight and into the day Saturday.

Lat... Lon 4502 10788 4521 10811 4525 10748 4479 10683
      4456 10672 4456 10718

Hooley